Weather History for Brookings, OR

Change the Weather History Date:

Sunday, September 29, 2013

  Actual Average Record
Temperature  
Mean Temperature 57 °F -  
Max Temperature 60 °F 67 °F 96 °F (1958)
Min Temperature 54 °F 50 °F 41 °F (2007)
Degree Days  
Heating Degree Days 8    
Growing Degree Days 7 (Base 50)    
Moisture  
Dew Point 57 °F    
Average Humidity 98    
Maximum Humidity 100    
Minimum Humidity 86    
Precipitation  
Precipitation 3.03 in - - ()
Sea Level Pressure  
Sea Level Pressure 29.87 in    
Wind  
Wind Speed 9 mph (South)    
Max Wind Speed 23 mph    
Max Gust Speed 30 mph    
Visibility 2 miles    
Events Fog , Rain    
Averages and records for this station are not official NWS values.
T = Trace of Precipitation, MM = Missing Value Source: NWS Daily Summary

Daily Weather History Graph

Daily Weather History Graph

Search for Another Location

Airport:

Trip Planner

Search our weather history database for the weather conditions in past years. The results will help you decide how hot, cold, wet, or windy it might be!

Date:

Astronomy

Sep. 29, 2013 Rise Set
Actual Time 7:12 AM PDT 7:01 PM PDT
Civil Twilight 6:44 AM PDT 7:29 PM PDT
Nautical Twilight 6:12 AM PDT 8:01 PM PDT
Astronomical Twilight 5:39 AM PDT 8:34 PM PDT
Moon 1:54 AM PDT (9/29) 4:05 PM PDT (9/29)
Length of Visible Light 12h 44m
Length of Day
11h 49m
Waning Crescent, 26% of the Moon is Illuminated
Sep 29
Waning Crescent
Oct 4
New
Oct 11
First Quarter
Oct 18
Full
Oct 26
Last Quarter

Hourly Weather History & Observations

Time (PDT) Temp. Dew Point Humidity Pressure Visibility Wind Dir Wind Speed Gust Speed Precip Events Conditions
12:10 AM 57.2 °F 57.2 °F 100% 29.84 in 0.5 mi WNW 9.2 mph 17.3 mph 0.10 in Fog , Rain Heavy Rain
12:56 AM 55.9 °F 55.9 °F 100% 29.88 in 1.0 mi SSW 9.2 mph 21.9 mph 1.34 in Rain Heavy Rain
1:25 AM 55.4 °F 55.4 °F 100% 29.88 in 0.8 mi Calm Calm - 0.22 in Rain Heavy Rain
1:31 AM 55.4 °F 55.4 °F 100% 29.88 in 1.2 mi Calm Calm - 0.24 in Rain Heavy Rain
1:37 AM 55.4 °F 55.4 °F 100% 29.88 in 2.0 mi Calm Calm - 0.24 in Rain Light Rain
1:56 AM 55.9 °F 55.9 °F 100% 29.89 in 2.5 mi NNW 3.5 mph - 0.27 in Rain Light Rain
2:03 AM 55.4 °F 55.4 °F 100% 29.88 in 3.0 mi Calm Calm - 0.00 in Rain Light Rain
2:56 AM 56.8 °F 56.8 °F 100% 29.89 in 7.0 mi Calm Calm - 0.00 in Rain Light Rain
3:44 AM 57.2 °F 57.2 °F 100% 29.88 in 1.8 mi Calm Calm - 0.00 in   Overcast
3:46 AM 57.2 °F 57.2 °F 100% 29.88 in 1.0 mi Calm Calm - 0.00 in   Overcast
3:56 AM 56.8 °F 56.8 °F 100% 29.88 in 0.8 mi Calm Calm - 0.00 in   Overcast
4:07 AM 57.2 °F 57.2 °F 100% 29.87 in 1.0 mi Variable 3.5 mph - N/A   Overcast
4:15 AM 57.2 °F 57.2 °F 100% 29.86 in 0.5 mi SSE 4.6 mph - N/A Fog Fog
4:25 AM 57.2 °F 57.2 °F 100% 29.87 in 0.2 mi Variable 3.5 mph - N/A Fog Fog
4:56 AM 57.9 °F 57.9 °F 100% 29.88 in 0.2 mi SSE 6.9 mph - N/A Fog Fog
5:56 AM 57.9 °F 57.9 °F 100% 29.88 in 0.2 mi Variable 5.8 mph - N/A Fog Fog
6:56 AM 56.8 °F 56.8 °F 100% 29.90 in 0.2 mi Variable 6.9 mph - N/A Fog Fog
7:23 AM 55.4 °F 55.4 °F 100% 29.89 in 0.2 mi SSE 8.1 mph - N/A Fog Fog
7:41 AM 55.4 °F 55.4 °F 100% 29.89 in 0.2 mi Variable 6.9 mph - N/A Fog Fog
7:56 AM 56.8 °F 56.8 °F 100% 29.90 in 0.2 mi SSE 9.2 mph - 0.00 in Fog , Rain Light Rain
8:56 AM 57.9 °F 57.9 °F 100% 29.89 in 0.2 mi SSE 13.8 mph 23.0 mph 0.00 in Fog , Rain Light Rain
9:32 AM 57.2 °F 57.2 °F 100% 29.90 in 0.2 mi SSE 16.1 mph 27.6 mph 0.00 in Fog Fog
9:41 AM 57.2 °F 57.2 °F 100% 29.90 in 0.8 mi SSE 15.0 mph 24.2 mph 0.00 in Rain Light Rain
9:43 AM 57.2 °F 57.2 °F 100% 29.90 in 1.2 mi SSE 13.8 mph 24.2 mph 0.00 in Rain Light Rain
9:45 AM 57.2 °F 57.2 °F 100% 29.90 in 2.0 mi SSE 15.0 mph 24.2 mph 0.00 in Rain Light Rain
9:56 AM 57.9 °F 57.9 °F 100% 29.90 in 2.5 mi SSE 11.5 mph 21.9 mph 0.00 in Rain Light Rain
10:09 AM 57.2 °F 57.2 °F 100% 29.90 in 3.0 mi SSE 11.5 mph 20.7 mph 0.00 in Rain Light Rain
10:19 AM 57.2 °F 57.2 °F 100% 29.90 in 2.5 mi SSE 10.4 mph 19.6 mph 0.00 in Rain Light Rain
10:27 AM 57.2 °F 57.2 °F 100% 29.90 in 2.5 mi SSE 11.5 mph 17.3 mph 0.00 in Rain Light Rain
10:38 AM 57.2 °F 57.2 °F 100% 29.90 in 3.0 mi SE 10.4 mph - 0.00 in Rain Light Rain
10:56 AM 56.8 °F 56.8 °F 100% 29.91 in 3.0 mi SSE 13.8 mph 18.4 mph 0.00 in   Overcast
11:14 AM 55.4 °F 55.4 °F 100% 29.91 in 4.0 mi SSE 15.0 mph - 0.00 in Rain Light Rain
11:25 AM 55.4 °F 53.6 °F 94% 29.90 in 5.0 mi SE 13.8 mph 21.9 mph 0.00 in Rain Light Rain
11:56 AM 54.9 °F 50.9 °F 86% 29.91 in 7.0 mi SSE 15.0 mph 23.0 mph 0.00 in   Mostly Cloudy
12:17 PM 55.4 °F 51.8 °F 88% 29.91 in 6.0 mi SE 12.7 mph 19.6 mph N/A   Haze
12:42 PM 55.4 °F 53.6 °F 94% 29.91 in 3.0 mi SSE 17.3 mph 23.0 mph 0.00 in Rain Light Rain
12:56 PM 55.9 °F 54.0 °F 93% 29.91 in 3.0 mi SSE 16.1 mph 26.5 mph 0.00 in Rain Light Rain
1:17 PM 55.4 °F 51.8 °F 88% 29.89 in 2.5 mi SE 9.2 mph 19.6 mph 0.00 in Rain Light Rain
1:21 PM 55.4 °F 51.8 °F 88% 29.88 in 3.0 mi Variable 6.9 mph - 0.00 in Rain Light Rain
1:37 PM 55.4 °F 53.6 °F 94% 29.89 in 2.5 mi SSE 12.7 mph 18.4 mph 0.00 in Rain Light Rain
1:41 PM 57.2 °F 53.6 °F 88% 29.89 in 2.5 mi SSE 16.1 mph 24.2 mph 0.01 in Rain Light Rain
1:56 PM 56.8 °F 55.9 °F 97% 29.89 in 3.0 mi South 11.5 mph - 0.01 in Rain Light Rain
2:07 PM 57.2 °F 57.2 °F 100% 29.88 in 1.8 mi SSE 10.4 mph 20.7 mph 0.00 in Rain Light Rain
2:28 PM 59.0 °F 57.2 °F 94% 29.87 in 2.5 mi South 19.6 mph 28.8 mph 0.00 in Rain Light Rain
2:45 PM 59.0 °F 57.2 °F 94% 29.88 in 4.0 mi SSE 15.0 mph 27.6 mph 0.00 in   Overcast
2:56 PM 59.0 °F 57.9 °F 96% 29.88 in 3.0 mi South 15.0 mph 26.5 mph 0.00 in Rain Light Rain
3:12 PM 59.0 °F 59.0 °F 100% 29.88 in 2.5 mi South 16.1 mph 24.2 mph 0.00 in Rain Light Rain
3:23 PM 60.8 °F 59.0 °F 94% 29.87 in 2.5 mi South 17.3 mph 28.8 mph 0.00 in Rain Light Rain
3:40 PM 59.0 °F 59.0 °F 100% 29.87 in 1.2 mi SSE 23.0 mph 29.9 mph 0.01 in Rain Rain
3:49 PM 59.0 °F 59.0 °F 100% 29.88 in 1.0 mi South 18.4 mph 29.9 mph 0.02 in Rain Light Rain
3:56 PM 59.0 °F 59.0 °F 100% 29.87 in 1.2 mi South 19.6 mph 28.8 mph 0.03 in Rain Light Rain
4:03 PM 59.0 °F 59.0 °F 100% 29.87 in 1.0 mi South 19.6 mph 28.8 mph 0.00 in Rain Light Rain
4:11 PM 59.0 °F 59.0 °F 100% 29.87 in 0.5 mi South 17.3 mph 28.8 mph 0.00 in Fog , Rain Light Rain
4:23 PM 59.0 °F 59.0 °F 100% 29.86 in 0.2 mi South 18.4 mph 27.6 mph 0.00 in Fog , Rain Light Rain
4:56 PM 59.0 °F 59.0 °F 100% 29.85 in 0.2 mi South 17.3 mph 28.8 mph 0.05 in Fog , Rain Rain
5:03 PM 59.0 °F 59.0 °F 100% 29.84 in 0.2 mi South 19.6 mph 27.6 mph 0.02 in Fog , Rain Rain
5:56 PM 59.0 °F 59.0 °F 100% 29.83 in 0.2 mi South 15.0 mph 23.0 mph 0.08 in Fog , Rain Light Rain
6:56 PM 59.0 °F 59.0 °F 100% 29.82 in 0.2 mi South 15.0 mph 21.9 mph 0.22 in Fog , Rain Rain
7:07 PM 59.0 °F 59.0 °F 100% 29.82 in 0.2 mi South 11.5 mph 23.0 mph 0.01 in Fog , Rain Rain
7:28 PM 59.0 °F 59.0 °F 100% 29.82 in 0.8 mi South 10.4 mph 17.3 mph 0.07 in Rain Heavy Rain
7:36 PM 59.0 °F 59.0 °F 100% 29.81 in 0.2 mi South 11.5 mph 21.9 mph 0.11 in Fog , Rain Rain
7:56 PM 57.9 °F 57.9 °F 100% 29.81 in 0.2 mi South 17.3 mph 27.6 mph 0.17 in Fog , Rain Rain
8:07 PM 59.0 °F 59.0 °F 100% 29.81 in 0.2 mi South 12.7 mph 23.0 mph 0.02 in Fog , Rain Rain
8:14 PM 59.0 °F 59.0 °F 100% 29.81 in 0.5 mi South 13.8 mph 24.2 mph 0.04 in Fog , Rain Rain
8:22 PM 57.2 °F 57.2 °F 100% 29.81 in 0.2 mi SSW 12.7 mph 20.7 mph 0.07 in Fog , Rain Rain
8:56 PM 59.0 °F 59.0 °F 100% 29.81 in 0.2 mi South 13.8 mph 21.9 mph 0.12 in Fog , Rain Rain
9:56 PM 57.9 °F 57.9 °F 100% 29.81 in 0.2 mi SSW 10.4 mph 25.3 mph 0.21 in Fog , Rain Rain
10:08 PM 57.2 °F 57.2 °F 100% 29.80 in 0.2 mi South 16.1 mph 23.0 mph 0.04 in Fog , Rain Light Rain
10:56 PM 57.9 °F 57.9 °F 100% 29.81 in 0.2 mi South 12.7 mph 18.4 mph 0.16 in Fog , Rain Rain
11:25 PM 57.2 °F 57.2 °F 100% 29.84 in 0.8 mi NW 11.5 mph 23.0 mph 0.28 in Rain Heavy Rain
11:31 PM 55.4 °F 55.4 °F 100% 29.84 in 1.2 mi NW 11.5 mph 23.0 mph 0.29 in Rain Heavy Rain
11:47 PM 55.4 °F 55.4 °F 100% 29.85 in 1.0 mi NW 8.1 mph 17.3 mph 0.34 in Rain Heavy Rain
11:56 PM 55.9 °F 55.9 °F 100% 29.86 in 1.0 mi NW 10.4 mph - 0.37 in Rain Heavy Rain